createdAt,value
2019-06-07T00:01:00.369Z,79.70
2019-06-07T00:03:30.113Z,79.30
2019-06-07T00:05:56.097Z,81.50
2019-06-07T00:08:28.595Z,79.70
2019-06-07T00:10:53.113Z,80.10
2019-06-07T00:13:20.519Z,79.20
2019-06-07T00:19:07.205Z,79.10
2019-06-07T00:22:13.666Z,79.40
2019-06-07T00:24:03.984Z,79.40
2019-06-07T00:26:31.032Z,79.00
2019-06-07T00:28:58.077Z,79.20
2019-06-07T00:31:25.087Z,79.50
2019-06-07T00:33:52.064Z,80.80
2019-06-07T00:36:20.691Z,79.30
2019-06-07T00:38:47.861Z,79.20
2019-06-07T00:41:15.709Z,79.90
2019-06-07T00:43:43.797Z,80.10
2019-06-07T00:46:13.268Z,79.80
2019-06-07T00:48:39.668Z,79.20
2019-06-07T00:51:06.607Z,80.70
2019-06-07T00:53:33.967Z,81.70
2019-06-07T00:56:00.904Z,79.40
2019-06-07T00:58:29.564Z,81.40
2019-06-07T01:00:56.676Z,80.60
2019-06-07T01:03:25.817Z,81.30
2019-06-07T01:05:53.692Z,80.90
2019-06-07T01:08:22.706Z,81.20
2019-06-07T01:14:04.884Z,81.60
2019-06-07T01:16:55.562Z,83.50
2019-06-07T01:19:00.603Z,81.70
2019-06-07T01:21:29.449Z,81.40
2019-06-07T01:24:11.503Z,80.90
2019-06-07T01:26:29.431Z,81.40
2019-06-07T01:28:54.364Z,80.90
2019-06-07T01:31:24.845Z,81.10
2019-06-07T01:33:51.393Z,80.90
2019-06-07T01:36:20.044Z,81.20
2019-06-07T01:38:47.501Z,83.30
2019-06-07T01:41:14.447Z,82.60
2019-06-07T01:43:41.448Z,82.40
2019-06-07T01:46:08.352Z,82.30
2019-06-07T01:48:49.018Z,82.40
2019-06-07T01:51:05.286Z,82.40
2019-06-07T01:53:32.500Z,82.30
2019-06-07T01:55:59.431Z,82.60
2019-06-07T01:58:29.063Z,83.10
2019-06-07T02:00:55.276Z,85.30
2019-06-07T02:03:26.319Z,85.20
2019-06-07T02:05:51.021Z,86.50
2019-06-07T02:08:20.127Z,87.70
2019-06-07T02:10:46.708Z,88.60
2019-06-07T02:13:14.585Z,88.30
2019-06-07T02:19:03.936Z,89.10
2019-06-07T02:21:34.470Z,89.50
2019-06-07T02:24:00.008Z,89.70
2019-06-07T02:26:29.949Z,90.00
2019-06-07T02:28:55.748Z,89.90
2019-06-07T02:31:25.253Z,90.10
2019-06-07T02:33:51.441Z,90.20
2019-06-07T02:36:19.662Z,89.60
2019-06-07T02:38:46.621Z,87.20
2019-06-07T02:41:13.552Z,86.90
2019-06-07T02:43:40.511Z,86.30
2019-06-07T02:46:25.015Z,86.20
2019-06-07T02:48:40.064Z,86.10
2019-06-07T02:51:06.764Z,85.70
2019-06-07T02:53:38.412Z,86.00
2019-06-07T02:58:38.416Z,86.30
2019-06-07T03:01:08.556Z,86.50
2019-06-07T03:03:30.605Z,84.70
2019-06-07T03:05:58.621Z,84.50
2019-06-07T03:08:30.434Z,85.80
2019-06-07T03:10:57.623Z,86.70
2019-06-07T03:13:28.471Z,85.60
2019-06-07T03:15:58.028Z,85.20
2019-06-07T03:18:43.391Z,85.20
2019-06-07T03:21:12.147Z,84.00
2019-06-07T03:23:39.664Z,84.10
2019-06-07T03:26:06.628Z,83.70
2019-06-07T03:28:36.072Z,82.90
2019-06-07T03:31:03.333Z,82.60
2019-06-07T03:33:33.323Z,81.90
2019-06-07T03:35:59.425Z,82.40
2019-06-07T03:38:27.624Z,81.40
2019-06-07T03:40:55.111Z,81.20
2019-06-07T03:43:22.056Z,80.70
2019-06-07T03:45:49.001Z,80.40
2019-06-07T03:48:15.967Z,79.60
2019-06-07T03:50:44.028Z,79.20
2019-06-07T03:53:11.498Z,79.40
2019-06-07T03:55:41.359Z,79.50
2019-06-07T04:00:39.401Z,78.90
2019-06-07T04:03:05.048Z,77.60
2019-06-07T04:05:36.616Z,77.90
2019-06-07T04:08:00.754Z,77.00
2019-06-07T04:10:48.262Z,76.40
2019-06-07T04:12:57.657Z,76.40
2019-06-07T04:15:24.985Z,75.70
2019-06-07T04:18:02.077Z,75.30
2019-06-07T04:20:20.735Z,74.30
2019-06-07T04:22:47.672Z,74.90
2019-06-07T04:25:15.028Z,73.20
2019-06-07T04:27:41.972Z,73.80
2019-06-07T04:30:09.839Z,73.70
2019-06-07T04:32:56.526Z,73.80
2019-06-07T04:35:23.595Z,73.30
2019-06-07T04:37:50.839Z,72.10
2019-06-07T04:40:17.803Z,72.10
2019-06-07T04:42:45.721Z,72.60
2019-06-07T04:45:33.223Z,72.70
2019-06-07T04:47:44.302Z,71.70
2019-06-07T04:50:10.987Z,73.10
2019-06-07T04:52:42.675Z,72.10
2019-06-07T04:55:06.685Z,72.50
2019-06-07T04:57:35.436Z,73.20
2019-06-07T05:00:33.852Z,72.60
2019-06-07T05:02:36.865Z,73.40
2019-06-07T05:05:05.720Z,72.20
2019-06-07T05:07:34.593Z,73.50
2019-06-07T05:10:01.556Z,73.00
2019-06-07T05:12:29.754Z,72.70
2019-06-07T05:14:57.219Z,72.90
2019-06-07T05:17:24.170Z,72.50
2019-06-07T05:19:51.108Z,71.90
2019-06-07T05:22:18.110Z,71.80
2019-06-07T05:24:45.072Z,70.90
2019-06-07T05:27:12.021Z,72.90
2019-06-07T05:29:41.617Z,70.60
2019-06-07T05:32:07.774Z,70.30
2019-06-07T05:34:36.932Z,69.90
2019-06-07T05:37:11.638Z,70.60
2019-06-07T05:39:36.342Z,70.10
2019-06-07T05:42:01.530Z,70.30
2019-06-07T05:44:28.530Z,68.90
2019-06-07T05:46:55.457Z,69.80
2019-06-07T05:49:22.410Z,64.70
2019-06-07T05:51:49.348Z,64.20
2019-06-07T05:54:16.199Z,61.50
2019-06-07T05:56:45.212Z,61.50
2019-06-07T05:59:11.905Z,60.70
2019-06-07T06:01:47.985Z,61.20
2019-06-07T06:04:07.743Z,59.70
2019-06-07T06:06:36.268Z,60.60
2019-06-07T06:09:13.892Z,60.60
2019-06-07T06:11:47.090Z,61.80
2019-06-07T06:14:07.982Z,60.20
2019-06-07T06:16:31.854Z,60.40
2019-06-07T06:18:58.800Z,58.70
2019-06-07T06:21:25.758Z,59.20
2019-06-07T06:23:54.017Z,59.80
2019-06-07T06:26:21.292Z,57.70
2019-06-07T06:28:49.637Z,58.10
2019-06-07T06:31:17.036Z,57.50
2019-06-07T06:33:45.246Z,57.80
2019-06-07T06:36:12.739Z,58.40
2019-06-07T06:38:39.783Z,58.90
2019-06-07T06:41:15.743Z,58.10
2019-06-07T06:43:38.501Z,58.60
2019-06-07T06:46:05.649Z,60.40
2019-06-07T06:48:32.591Z,57.00
2019-06-07T06:50:59.551Z,57.00
2019-06-07T06:53:26.509Z,57.30
2019-06-07T06:55:53.440Z,57.50
2019-06-07T06:58:20.397Z,57.10
2019-06-07T07:01:07.317Z,57.60
2019-06-07T07:04:06.919Z,56.80
2019-06-07T07:06:24.739Z,58.10
2019-06-07T07:08:34.536Z,58.70
2019-06-07T07:11:01.520Z,56.90
2019-06-07T07:13:28.455Z,54.10
2019-06-07T07:15:57.985Z,54.30
2019-06-07T07:18:24.161Z,57.20
2019-06-07T07:20:55.683Z,54.50
2019-06-07T07:23:19.844Z,55.10
2019-06-07T07:25:52.758Z,54.20
2019-06-07T07:28:16.520Z,53.60
2019-06-07T07:30:47.396Z,56.00
2019-06-07T07:33:16.212Z,56.10
2019-06-07T07:36:08.087Z,55.20
2019-06-07T07:38:12.447Z,53.70
2019-06-07T07:43:08.205Z,53.80
2019-06-07T07:45:35.345Z,54.80
2019-06-07T07:48:15.433Z,55.10
2019-06-07T07:50:31.100Z,55.90
2019-06-07T07:53:00.688Z,55.50
2019-06-07T07:55:26.906Z,56.00
2019-06-07T07:58:01.189Z,56.50
2019-06-07T08:00:50.240Z,55.30
2019-06-07T08:02:56.237Z,55.20
2019-06-07T08:05:33.250Z,54.00
2019-06-07T08:07:54.849Z,53.70
2019-06-07T08:10:19.744Z,53.60
2019-06-07T08:13:09.041Z,53.80
2019-06-07T08:15:16.875Z,54.60
2019-06-07T08:17:43.784Z,53.70
2019-06-07T08:20:11.408Z,54.50
2019-06-07T08:22:38.388Z,49.50
2019-06-07T08:25:06.614Z,47.20
2019-06-07T08:27:33.587Z,49.30
2019-06-07T08:30:25.891Z,46.70
2019-06-07T08:32:29.299Z,45.60
2019-06-07T08:35:02.350Z,45.50
2019-06-07T08:38:13.300Z,48.20
2019-06-07T08:39:56.746Z,43.40
2019-06-07T08:42:36.552Z,44.00
2019-06-07T08:44:53.602Z,42.60
2019-06-07T08:47:21.224Z,44.40
2019-06-07T08:49:48.472Z,45.90
2019-06-07T08:52:15.417Z,40.50
2019-06-07T08:54:42.376Z,40.70
2019-06-07T08:57:20.449Z,39.00
2019-06-07T08:59:38.141Z,42.70
2019-06-07T09:02:20.936Z,43.70
2019-06-07T09:04:33.973Z,46.10
2019-06-07T09:07:12.096Z,45.00
2019-06-07T09:09:29.698Z,44.20
2019-06-07T09:11:59.401Z,45.60
2019-06-07T09:14:25.401Z,45.10
2019-06-07T09:16:58.766Z,46.60
2019-06-07T09:19:21.075Z,45.90
2019-06-07T09:21:48.052Z,47.60
2019-06-07T09:24:15.018Z,46.40
2019-06-07T09:26:41.993Z,47.50
2019-06-07T09:29:11.635Z,47.20
2019-06-07T09:31:52.026Z,50.00
2019-06-07T09:34:11.797Z,48.50
2019-06-07T09:36:35.308Z,47.40
2019-06-07T09:39:09.560Z,46.70
2019-06-07T09:41:46.812Z,45.40
2019-06-07T09:44:18.983Z,44.80
2019-06-07T09:46:30.694Z,45.10
2019-06-07T09:49:25.753Z,45.60
2019-06-07T09:51:26.415Z,44.70
2019-06-07T09:53:53.368Z,42.40
2019-06-07T09:56:20.308Z,44.20
2019-06-07T09:58:51.959Z,43.50
2019-06-07T10:01:16.068Z,42.60
2019-06-07T10:03:43.042Z,42.80
2019-06-07T10:06:13.582Z,44.70
2019-06-07T10:09:56.934Z,46.40
2019-06-07T10:11:09.276Z,47.50
2019-06-07T10:13:36.242Z,44.50
2019-06-07T10:16:04.775Z,45.00
2019-06-07T10:18:31.935Z,47.10
2019-06-07T10:20:59.373Z,47.70
2019-06-07T10:23:26.551Z,46.00
2019-06-07T10:25:53.493Z,43.90
2019-06-07T10:28:20.464Z,43.70
2019-06-07T10:30:47.419Z,43.40
2019-06-07T10:33:14.351Z,42.20
2019-06-07T10:35:41.322Z,40.60
2019-06-07T10:38:08.616Z,44.70
2019-06-07T10:40:35.711Z,43.60
2019-06-07T10:43:03.036Z,47.10
2019-06-07T10:45:30.311Z,44.70
2019-06-07T10:47:57.268Z,43.70
2019-06-07T10:50:24.247Z,42.50
2019-06-07T10:52:51.179Z,45.00
2019-06-07T10:55:18.115Z,44.10
2019-06-07T10:57:45.061Z,44.70
2019-06-07T11:00:13.589Z,46.40
2019-06-07T11:02:40.926Z,45.00
2019-06-07T11:05:08.594Z,40.20
2019-06-07T11:07:36.729Z,41.60
2019-06-07T11:10:13.294Z,42.80
2019-06-07T11:12:35.933Z,46.70
2019-06-07T11:15:06.644Z,44.90
2019-06-07T11:17:33.673Z,41.10
2019-06-07T11:20:01.305Z,44.70
2019-06-07T11:22:28.291Z,41.00
2019-06-07T11:24:55.239Z,43.00
2019-06-07T11:27:22.205Z,44.30
2019-06-07T11:29:49.149Z,39.00
2019-06-07T11:32:16.104Z,39.00
2019-06-07T11:34:43.031Z,36.10
2019-06-07T11:37:11.607Z,35.10
2019-06-07T11:39:38.748Z,34.40
2019-06-07T11:42:05.825Z,36.90
2019-06-07T11:44:32.793Z,35.50
2019-06-07T11:46:59.755Z,40.00
2019-06-07T11:49:26.721Z,40.70
2019-06-07T11:51:53.724Z,40.80
2019-06-07T11:54:20.788Z,37.00
2019-06-07T11:56:48.796Z,41.10
2019-06-07T11:59:15.887Z,39.10
2019-06-07T12:01:42.852Z,38.40
2019-06-07T12:04:09.860Z,42.60
2019-06-07T12:06:36.892Z,53.60
2019-06-07T12:09:06.510Z,45.00
2019-06-07T12:11:34.009Z,46.60
2019-06-07T12:14:01.027Z,43.20
2019-06-07T12:16:28.412Z,46.30
2019-06-07T12:18:55.392Z,53.70
2019-06-07T12:21:24.177Z,40.90
2019-06-07T12:23:51.373Z,41.30
2019-06-07T12:26:18.607Z,53.00
2019-06-07T12:28:45.712Z,42.50
2019-06-07T12:31:15.074Z,36.80
2019-06-07T12:33:42.480Z,37.60
2019-06-07T12:36:09.571Z,40.90
2019-06-07T12:38:36.507Z,36.20
2019-06-07T12:41:03.473Z,40.80
2019-06-07T12:43:30.407Z,42.30
2019-06-07T12:45:57.832Z,38.80
2019-06-07T12:48:26.147Z,37.40
2019-06-07T12:50:53.221Z,42.00
2019-06-07T12:53:25.920Z,40.90
2019-06-07T12:55:49.200Z,38.00
2019-06-07T12:58:22.000Z,39.10
2019-06-07T13:00:45.408Z,37.20
2019-06-07T13:03:14.276Z,38.90
2019-06-07T13:05:42.081Z,39.20
2019-06-07T13:08:09.046Z,41.00
2019-06-07T13:10:39.047Z,41.70
2019-06-07T13:13:06.021Z,39.40
2019-06-07T13:15:32.964Z,40.50
2019-06-07T13:17:59.912Z,38.30
2019-06-07T13:20:28.771Z,41.90
2019-06-07T13:22:55.765Z,36.90
2019-06-07T13:25:25.840Z,39.40
2019-06-07T13:27:52.079Z,39.40
2019-06-07T13:30:20.992Z,37.80
2019-06-07T13:32:47.827Z,33.60
2019-06-07T13:35:18.793Z,36.50
2019-06-07T13:37:46.883Z,36.40
2019-06-07T13:40:14.391Z,41.60
2019-06-07T13:42:41.335Z,40.30
2019-06-07T13:45:10.829Z,41.00
2019-06-07T13:47:37.775Z,42.80
2019-06-07T13:50:06.681Z,43.30
2019-06-07T13:52:33.625Z,45.50
2019-06-07T13:55:02.326Z,45.10
2019-06-07T13:57:30.781Z,45.00
2019-06-07T13:59:57.779Z,46.10
2019-06-07T14:02:26.151Z,47.30
2019-06-07T14:04:53.490Z,43.40
2019-06-07T14:07:21.260Z,43.00
2019-06-07T14:09:49.258Z,44.10
2019-06-07T14:12:16.214Z,44.00
2019-06-07T14:14:43.177Z,42.20
2019-06-07T14:17:10.133Z,42.70
2019-06-07T14:19:39.093Z,43.20
2019-06-07T14:22:06.053Z,41.60
2019-06-07T14:24:33.001Z,41.80
2019-06-07T14:27:07.314Z,43.80
2019-06-07T14:29:38.419Z,46.60
2019-06-07T14:32:06.597Z,43.70
2019-06-07T14:34:34.106Z,42.70
2019-06-07T14:37:01.052Z,41.60
2019-06-07T14:39:29.495Z,44.70
2019-06-07T14:42:08.414Z,41.90
2019-06-07T14:44:27.682Z,43.40
2019-06-07T14:46:54.876Z,44.80
2019-06-07T14:49:22.074Z,46.60
2019-06-07T14:51:49.000Z,45.80
2019-06-07T14:54:17.044Z,49.80
2019-06-07T14:56:44.015Z,50.20
2019-06-07T14:59:11.981Z,48.90
2019-06-07T15:01:40.775Z,46.60
2019-06-07T15:04:07.703Z,43.40
2019-06-07T15:06:34.966Z,55.10
2019-06-07T15:09:02.020Z,51.80
2019-06-07T15:11:31.149Z,55.40
2019-06-07T15:13:58.521Z,56.20
2019-06-07T15:16:25.623Z,56.40
2019-06-07T15:18:52.552Z,57.70
2019-06-07T15:21:19.500Z,58.40
2019-06-07T15:23:46.460Z,59.10
2019-06-07T15:26:13.412Z,58.20
2019-06-07T15:28:40.387Z,56.50
2019-06-07T15:31:07.331Z,57.60
2019-06-07T15:33:34.420Z,57.90
2019-06-07T15:36:02.727Z,57.30
2019-06-07T15:38:31.043Z,56.50
2019-06-07T15:40:58.148Z,57.10
2019-06-07T15:43:25.077Z,54.60
2019-06-07T15:45:52.033Z,54.40
2019-06-07T15:48:18.997Z,54.30
2019-06-07T15:50:46.577Z,54.30
2019-06-07T15:53:13.560Z,55.00
2019-06-07T15:55:45.054Z,55.30
2019-06-07T15:58:09.467Z,55.60
2019-06-07T16:00:37.445Z,55.20
2019-06-07T16:03:04.602Z,54.60
2019-06-07T16:05:31.917Z,54.40
2019-06-07T16:07:59.160Z,54.40
2019-06-07T16:10:26.109Z,54.40
2019-06-07T16:13:00.044Z,54.60
2019-06-07T16:15:22.659Z,55.00
2019-06-07T16:17:49.628Z,54.60
2019-06-07T16:20:18.092Z,54.90
2019-06-07T16:22:45.712Z,54.90
2019-06-07T16:25:17.074Z,55.60
2019-06-07T16:27:46.918Z,57.00
2019-06-07T16:30:14.464Z,57.30
2019-06-07T16:32:44.057Z,55.20
2019-06-07T16:35:12.099Z,55.50
2019-06-07T16:37:40.494Z,56.60
2019-06-07T16:40:10.647Z,54.50
2019-06-07T16:42:38.469Z,56.00
2019-06-07T16:45:10.881Z,54.10
2019-06-07T16:47:40.298Z,57.20
2019-06-07T16:50:07.960Z,54.90
2019-06-07T16:52:35.292Z,55.60
2019-06-07T16:55:04.232Z,54.50
2019-06-07T16:57:31.256Z,55.10
2019-06-07T16:59:58.203Z,54.30
2019-06-07T17:02:30.955Z,53.70
2019-06-07T17:05:18.060Z,55.10
2019-06-07T17:07:46.749Z,53.20
2019-06-07T17:10:15.872Z,53.20
2019-06-07T17:12:42.967Z,53.30
2019-06-07T17:15:11.934Z,53.50
2019-06-07T17:17:38.927Z,54.00
2019-06-07T17:20:07.127Z,53.70
2019-06-07T17:22:34.125Z,55.20
2019-06-07T17:25:01.847Z,54.60
2019-06-07T17:27:30.088Z,54.70
2019-06-07T17:29:57.040Z,54.90
2019-06-07T17:32:23.981Z,54.50
2019-06-07T17:34:50.949Z,54.40
2019-06-07T17:37:17.910Z,54.60
2019-06-07T17:39:45.080Z,54.80
2019-06-07T17:42:12.292Z,55.60
2019-06-07T17:44:39.376Z,56.00
2019-06-07T17:47:06.313Z,55.90
2019-06-07T17:49:33.272Z,56.10
2019-06-07T17:52:00.207Z,56.40
2019-06-07T17:54:27.167Z,57.40
2019-06-07T17:56:54.112Z,57.30
2019-06-07T17:59:22.031Z,57.70
2019-06-07T18:02:10.203Z,58.30
2019-06-07T18:04:18.830Z,58.40
2019-06-07T18:06:47.242Z,58.90
2019-06-07T18:09:15.036Z,60.60
2019-06-07T18:11:41.996Z,61.60
2019-06-07T18:14:11.134Z,61.10
2019-06-07T18:16:38.050Z,61.50
2019-06-07T18:19:05.007Z,62.30
2019-06-07T18:21:32.120Z,63.00
2019-06-07T18:24:00.016Z,63.30
2019-06-07T18:26:26.975Z,64.50
2019-06-07T18:28:54.714Z,65.40
2019-06-07T18:31:21.767Z,64.60
2019-06-07T18:33:51.436Z,66.20
2019-06-07T18:36:18.519Z,67.10
2019-06-07T18:38:46.782Z,67.80
2019-06-07T18:41:14.033Z,67.40
2019-06-07T18:43:40.975Z,67.90
2019-06-07T18:46:07.937Z,68.10
2019-06-07T18:48:34.885Z,69.40
2019-06-07T18:51:01.820Z,70.50
2019-06-07T18:53:28.760Z,70.70
2019-06-07T18:55:56.244Z,69.80
2019-06-07T18:58:23.471Z,70.90
2019-06-07T19:00:51.401Z,70.70
2019-06-07T19:03:19.076Z,70.90
2019-06-07T19:05:46.052Z,70.70
2019-06-07T19:08:13.054Z,70.60
2019-06-07T19:10:40.019Z,70.70
2019-06-07T19:13:06.944Z,70.50
2019-06-07T19:15:33.985Z,70.50
2019-06-07T19:18:01.140Z,70.70
2019-06-07T19:20:28.220Z,71.10
2019-06-07T19:22:56.339Z,70.90
2019-06-07T19:25:23.603Z,70.90
2019-06-07T19:27:50.961Z,71.00
2019-06-07T19:30:18.299Z,72.40
2019-06-07T19:32:45.277Z,71.70
2019-06-07T19:35:13.019Z,70.60
2019-06-07T19:37:43.432Z,71.60
2019-06-07T19:40:11.573Z,72.30
2019-06-07T19:42:38.599Z,71.50
2019-06-07T19:45:29.129Z,72.40
2019-06-07T19:47:35.071Z,72.10
2019-06-07T19:50:03.183Z,71.70
2019-06-07T19:52:30.307Z,72.10
2019-06-07T19:54:57.613Z,74.40
2019-06-07T19:57:24.776Z,72.90
2019-06-07T19:59:51.901Z,72.30
2019-06-07T20:02:38.562Z,73.40
2019-06-07T20:05:07.645Z,73.00
2019-06-07T20:07:34.635Z,73.40
2019-06-07T20:10:05.464Z,75.10
2019-06-07T20:12:32.401Z,74.50
2019-06-07T20:15:18.759Z,74.30
2019-06-07T20:17:28.244Z,74.60
2019-06-07T20:19:56.218Z,74.70
2019-06-07T20:22:23.424Z,75.10
2019-06-07T20:24:50.376Z,75.90
2019-06-07T20:27:17.320Z,75.60
2019-06-07T20:29:44.275Z,75.70
2019-06-07T20:32:11.256Z,76.50
2019-06-07T20:34:38.248Z,76.90
2019-06-07T20:37:05.977Z,77.10
2019-06-07T20:39:35.216Z,77.10
2019-06-07T20:42:03.374Z,76.90
2019-06-07T20:44:30.515Z,78.90
2019-06-07T20:46:57.883Z,78.30
2019-06-07T20:49:25.095Z,78.00
2019-06-07T20:51:52.080Z,78.50
2019-06-07T20:54:19.072Z,78.40
2019-06-07T20:56:46.120Z,78.40
2019-06-07T20:59:13.051Z,78.50
2019-06-07T21:01:42.731Z,78.60
2019-06-07T21:04:09.294Z,79.00
2019-06-07T21:06:36.248Z,78.80
2019-06-07T21:09:05.639Z,79.20
2019-06-07T21:11:32.286Z,80.00
2019-06-07T21:13:59.939Z,79.40
2019-06-07T21:16:27.179Z,79.20
2019-06-07T21:18:54.267Z,79.60
2019-06-07T21:21:21.240Z,78.80
2019-06-07T21:23:48.177Z,80.20
2019-06-07T21:26:15.525Z,80.80
2019-06-07T21:28:44.067Z,80.30
2019-06-07T21:31:12.365Z,81.00
2019-06-07T21:33:39.766Z,81.60
2019-06-07T21:36:07.788Z,82.00
2019-06-07T21:38:35.484Z,82.10
2019-06-07T21:41:02.466Z,81.50
2019-06-07T21:43:29.429Z,81.90
2019-06-07T21:46:05.385Z,82.40
2019-06-07T21:48:25.128Z,82.10
2019-06-07T21:50:52.059Z,82.30
2019-06-07T21:53:19.008Z,82.10
2019-06-07T21:55:45.960Z,82.40
2019-06-07T21:58:13.557Z,82.80
2019-06-07T22:00:56.376Z,82.90
2019-06-07T22:03:23.708Z,85.80
2019-06-07T22:05:50.655Z,84.50
2019-06-07T22:08:17.588Z,83.20
2019-06-07T22:10:44.557Z,83.40
2019-06-07T22:13:12.175Z,83.80
2019-06-07T22:15:39.391Z,83.70
2019-06-07T22:20:50.365Z,84.10
2019-06-07T22:23:18.531Z,84.10
2019-06-07T22:25:45.580Z,84.30
2019-06-07T22:28:12.856Z,84.50
2019-06-07T22:30:39.943Z,85.00
2019-06-07T22:33:08.659Z,85.60
2019-06-07T22:35:35.921Z,86.50
2019-06-07T22:38:03.854Z,86.00
2019-06-07T22:40:31.045Z,86.10
2019-06-07T22:42:58.159Z,86.10
2019-06-07T22:45:25.301Z,86.00
2019-06-07T22:47:52.376Z,86.30
2019-06-07T22:50:19.484Z,86.20
2019-06-07T22:52:46.673Z,86.40
2019-06-07T22:55:14.314Z,86.30
2019-06-07T22:57:59.377Z,87.60
2019-06-07T23:00:29.312Z,86.50
2019-06-07T23:02:56.335Z,86.50
2019-06-07T23:05:23.436Z,86.30
2019-06-07T23:07:50.455Z,86.30
2019-06-07T23:10:17.531Z,86.00
2019-06-07T23:12:44.612Z,85.90
2019-06-07T23:18:56.556Z,85.50
2019-06-07T23:21:23.594Z,86.60
2019-06-07T23:23:50.568Z,85.30
2019-06-07T23:26:18.304Z,85.00
2019-06-07T23:28:45.544Z,84.70
2019-06-07T23:31:12.524Z,84.70
2019-06-07T23:33:39.453Z,84.90
2019-06-07T23:36:06.383Z,85.00
2019-06-07T23:38:33.348Z,85.20
2019-06-07T23:41:00.288Z,85.40
2019-06-07T23:43:27.251Z,85.70
2019-06-07T23:45:54.200Z,85.80
2019-06-07T23:48:21.626Z,85.80
2019-06-07T23:50:49.777Z,85.70
2019-06-07T23:53:17.673Z,85.60
2019-06-07T23:55:44.865Z,85.30
2019-06-07T23:58:11.933Z,85.20
